Lisbon, Portugal
Current Conditions -  °F | °C
As of 7:30 PM on Monday 22 Dec 2014 (Local Time) from LPPT Reporting Station
Clear Clear  
Wind Chill: 50°   Ceiling: Unl
Heat Index: 50°   Visibility: 6mi
Dew Point: 48°   Wind: 1mph
Humidity: 94%   Direction: NA
Pressure: 30.33"   Gusts: NA
Location:  38.72°N, 9.14°W
Report Text: LPPT 221930Z VRB01KT CAVOK 10/09 Q1027
Loading
Personal Weather Stations






























Interactive Weather Map New forecast layout! Learn more

10-Day Weather Forecast

Advertisements
Track Severe Weather on mobile